Flight Track Log - Related Links

Times and Time Zones

All times are in EDT time to prevent confusion due to time zone crossing. See the JBU2480 flight status page for this flight to view local times or setup timezone preferences in your user account.

Time Position Orientation Groundspeed Altitude Reporting Facility
EDT Latitude Longitude Course Direction KTS MPH feet Rate Location/Type
Tue 02:09:58 PM 40.6500 -74.1833 51° Northeast 176 203 2,000  Level New York TRACON
Tue 02:12:17 PM 40.7331 -74.1681 North 252 290 9,000 2,687 Climbing Boston Center
Tue 02:13:19 PM 40.7781 -74.0808 56° Northeast 290 334 11,000 1,452 Climbing Boston Center
Tue 02:14:21 PM 40.8533 -73.9686 48° Northeast 347 399 12,000 1,561 Climbing Boston Center
Tue 02:15:00 PM 40.9476 -73.7064 51° Northeast  Level Estimated
Tue 02:15:22 PM 40.9183 -73.8661 50° Northeast 360 414 14,200  Level Boston Center
Tue 02:17:26 PM 41.0594 -73.6461 50° Northeast 382 440 18,200 1,548 Climbing Boston Center
Tue 02:18:28 PM 41.1356 -73.5261 50° Northeast 392 451 19,000 390 Climbing Boston Center
Tue 02:19:29 PM 41.2075 -73.4144 49° Northeast 399 459 19,000  Level Boston Center
Tue 02:20:31 PM 41.2819 -73.2986 49° Northeast 398 458 19,000  Level Boston Center
Tue 02:21:33 PM 41.3583 -73.1767 50° Northeast 398 458 19,000  Level Boston Center
Tue 02:22:35 PM 41.3939 -73.0378 71° East 403 464 19,000  Level Boston Center
Tue 02:23:37 PM 41.4092 -72.8886 82° East 405 466 19,000  Level Boston Center
Tue 02:24:38 PM 41.4264 -72.7286 82° East 406 467 19,000  Level Boston Center
Tue 02:25:40 PM 41.4419 -72.5808 82° East 406 467 19,000  Level Boston Center
Tue 02:26:42 PM 41.4583 -72.4208 82° East 406 467 19,000  Level Boston Center
Tue 02:27:44 PM 41.4725 -72.2781 82° East 395 455 19,000  Level Boston Center
Tue 02:28:45 PM 41.5053 -72.1403 72° East 393 452 19,000 -293 Level Boston Center
Tue 02:29:47 PM 41.5550 -72.0022 64° Northeast 385 443 18,400 -1,113 Descending Boston Center
Tue 02:30:49 PM 41.5939 -71.8725 68° East 382 440 16,700 -1,659 Descending Boston Center
Tue 02:31:50 PM 41.6347 -71.7364 68° East 372 428 15,000 -1,610 Descending Boston Center
Tue 02:32:52 PM 41.6697 -71.6150 69° East 358 412 13,400 -1,500 Descending Boston Center
Tue 02:33:54 PM 41.7067 -71.4908 68° East 340 391 11,900 -1,171 Descending Boston Center
Tue 02:34:55 PM 41.7764 -71.4331 32° Northeast 304 350 11,000 -439 Descending Boston Center
Tue 02:35:57 PM 41.8581 -71.3803 26° Northeast 304 350 11,000 -629 Level Boston Center
Tue 02:36:59 PM 41.9331 -71.3319 26° Northeast 302 348 9,700 -1,366 Descending Boston Center
Tue 02:38:00 PM 42.0058 -71.2850 26° Northeast 295 339 8,200 -927 Descending Boston Center
Tue 02:39:02 PM 42.0703 -71.2358 30° Northeast 246 283 7,800 -629 Descending Boston Center
Tue 02:40:04 PM 42.1186 -71.2047 26° Northeast 194 223 6,900 -1,065 Descending Boston Center
Tue 02:41:06 PM 42.1686 -71.1700 27° Northeast 189 217 5,600 -1,220 Descending Boston Center
Tue 02:42:07 PM 42.2158 -71.1425 23° Northeast 187 215 4,400 -1,122 Descending Boston Center
Tue 02:43:09 PM 42.2547 -71.0956 42° Northeast 187 215 3,300 -1,210 Descending Boston Center
Tue 02:44:11 PM 42.3000 -71.0500 37° Northeast 187 215 1,900 -1,317 Descending Boston Center
Tue 02:45:12 PM 42.3400 -71.0194 29° Northeast 174 200 600 -829 Descending Boston Center
Tue 02:46:14 PM 42.3778 -71.0006 20° North 169 194 200 -387 Descending Boston Center

Login

Don't have an account? Register now (free) for customized features, flight alerts, and more!